createdAt,value
2023-05-14T00:06:13.646Z,62.58
2023-05-14T00:16:35.147Z,65.94
2023-05-14T00:26:56.627Z,66.38
2023-05-14T00:37:18.039Z,65.25
2023-05-14T00:47:40.141Z,68.12
2023-05-14T00:58:02.525Z,68.04
2023-05-14T01:08:40.881Z,69.03
2023-05-14T01:19:02.739Z,68.37
2023-05-14T01:29:26.130Z,68.49
2023-05-14T01:39:48.401Z,67.75
2023-05-14T01:50:10.051Z,67.80
2023-05-14T02:00:31.408Z,68.33
2023-05-14T02:10:52.769Z,68.34
2023-05-14T02:21:14.128Z,68.62
2023-05-14T02:31:35.634Z,68.74
2023-05-14T02:41:57.074Z,68.52
2023-05-14T02:52:18.425Z,69.13
2023-05-14T03:02:39.903Z,69.50
2023-05-14T03:13:01.617Z,70.13
2023-05-14T03:23:23.004Z,70.43
2023-05-14T03:33:45.946Z,70.09
2023-05-14T03:44:07.296Z,70.55
2023-05-14T03:54:28.686Z,70.83
2023-05-14T04:04:50.092Z,70.25
2023-05-14T04:15:11.740Z,69.59
2023-05-14T04:25:33.250Z,69.94
2023-05-14T04:35:54.593Z,70.25
2023-05-14T04:46:16.026Z,69.44
2023-05-14T04:56:37.466Z,69.74
2023-05-14T05:06:58.825Z,70.28
2023-05-14T05:17:20.276Z,70.49
2023-05-14T05:27:41.765Z,71.37
2023-05-14T05:38:03.226Z,70.91
2023-05-14T05:48:24.596Z,71.73
2023-05-14T05:58:45.961Z,71.14
2023-05-14T06:09:08.887Z,71.25
2023-05-14T06:19:30.327Z,71.07
2023-05-14T06:29:51.783Z,72.82
2023-05-14T06:40:15.640Z,72.15
2023-05-14T06:50:37.033Z,72.09
2023-05-14T07:00:58.416Z,71.40
2023-05-14T07:11:19.779Z,72.10
2023-05-14T07:21:41.356Z,70.58
2023-05-14T07:32:02.778Z,68.70
2023-05-14T07:42:35.144Z,69.62
2023-05-14T07:52:57.732Z,68.81
2023-05-14T08:03:19.247Z,66.50
2023-05-14T08:13:41.517Z,65.97
2023-05-14T08:24:02.872Z,66.51
2023-05-14T08:34:24.382Z,65.40
2023-05-14T08:44:48.308Z,64.87
2023-05-14T08:55:10.513Z,63.17
2023-05-14T09:05:33.293Z,62.33
2023-05-14T09:15:55.065Z,62.51
2023-05-14T09:26:17.587Z,63.81
2023-05-14T09:36:40.802Z,64.53
2023-05-14T09:47:02.178Z,64.44
2023-05-14T09:57:23.808Z,62.22
2023-05-14T10:07:49.362Z,60.62
2023-05-14T10:18:12.191Z,62.22
2023-05-14T10:28:33.782Z,60.39
2023-05-14T10:38:55.950Z,62.21
2023-05-14T10:49:25.785Z,60.00
2023-05-14T10:59:55.151Z,59.54
2023-05-14T11:10:17.479Z,59.94
2023-05-14T11:20:39.063Z,61.88
2023-05-14T11:31:00.495Z,59.27
2023-05-14T11:41:23.095Z,56.51
2023-05-14T11:51:44.735Z,58.21
2023-05-14T12:02:08.592Z,60.81
2023-05-14T12:12:34.606Z,59.03
2023-05-14T12:22:55.978Z,58.89
2023-05-14T12:33:17.982Z,60.13
2023-05-14T12:43:40.960Z,60.08
2023-05-14T12:54:02.303Z,59.36
2023-05-14T13:04:23.769Z,60.90
2023-05-14T13:14:45.288Z,60.85
2023-05-14T13:25:07.009Z,61.26
2023-05-14T13:35:28.505Z,60.33
2023-05-14T13:45:50.201Z,57.17
2023-05-14T13:56:11.717Z,59.50
2023-05-14T14:06:33.287Z,57.98
2023-05-14T14:16:54.720Z,58.76
2023-05-14T14:27:16.074Z,61.18
2023-05-14T14:37:37.436Z,57.92
2023-05-14T14:48:17.410Z,60.48
2023-05-14T14:58:38.858Z,59.50
2023-05-14T15:09:00.310Z,59.54
2023-05-14T15:19:21.888Z,56.74
2023-05-14T15:29:43.404Z,57.74
2023-05-14T15:40:08.112Z,59.38
2023-05-14T15:50:29.500Z,58.32
2023-05-14T16:00:50.856Z,57.24
2023-05-14T16:11:12.218Z,57.82
2023-05-14T16:21:34.248Z,59.07
2023-05-14T16:31:55.734Z,57.80
2023-05-14T16:42:17.130Z,60.31
2023-05-14T16:52:38.705Z,58.49
2023-05-14T17:03:00.158Z,59.45
2023-05-14T17:13:21.561Z,57.46
2023-05-14T17:23:43.057Z,58.73
2023-05-14T17:34:04.388Z,56.26
2023-05-14T17:44:25.745Z,55.44
2023-05-14T17:54:47.108Z,56.86
2023-05-14T18:05:08.534Z,58.17
2023-05-14T18:15:31.451Z,58.04
2023-05-14T18:25:52.891Z,57.71
2023-05-14T18:36:14.298Z,59.46
2023-05-14T18:46:35.720Z,59.25
2023-05-14T18:56:57.234Z,61.19
2023-05-14T19:07:18.925Z,61.77
2023-05-14T19:17:40.422Z,63.12
2023-05-14T19:28:03.590Z,63.20
2023-05-14T19:38:25.012Z,63.26
2023-05-14T19:48:46.561Z,63.47
2023-05-14T19:59:07.963Z,65.34
2023-05-14T20:09:29.320Z,64.99
2023-05-14T20:19:52.187Z,64.37
2023-05-14T20:30:13.613Z,64.17
2023-05-14T20:40:34.981Z,65.59
2023-05-14T20:50:56.382Z,65.84
2023-05-14T21:01:17.832Z,66.07
2023-05-14T21:11:39.286Z,65.83
2023-05-14T21:22:00.653Z,66.53
2023-05-14T21:32:22.311Z,66.47
2023-05-14T21:42:43.878Z,66.94
2023-05-14T21:53:05.342Z,67.30
2023-05-14T22:03:27.195Z,67.17
2023-05-14T22:13:48.592Z,67.46
2023-05-14T22:24:09.957Z,67.94
2023-05-14T22:34:31.321Z,67.84
2023-05-14T22:44:52.672Z,67.94
2023-05-14T22:55:14.020Z,67.74
2023-05-14T23:05:35.394Z,68.43
2023-05-14T23:15:56.872Z,69.68
2023-05-14T23:26:18.211Z,69.71
2023-05-14T23:36:40.431Z,69.79
2023-05-14T23:47:01.889Z,70.95
2023-05-14T23:57:23.253Z,71.16
